createdAt,value
2023-05-23T00:02:13.939Z,2.50
2023-05-23T00:04:43.030Z,3.10
2023-05-23T00:07:11.103Z,2.53
2023-05-23T00:09:39.067Z,2.60
2023-05-23T00:12:08.927Z,3.03
2023-05-23T00:14:36.887Z,2.33
2023-05-23T00:17:05.928Z,2.50
2023-05-23T00:19:36.440Z,2.53
2023-05-23T00:22:04.755Z,2.57
2023-05-23T00:24:32.743Z,2.70
2023-05-23T00:27:01.100Z,2.40
2023-05-23T00:29:30.464Z,2.43
2023-05-23T00:31:58.448Z,2.77
2023-05-23T00:34:26.427Z,2.47
2023-05-23T00:36:54.353Z,2.40
2023-05-23T00:39:22.351Z,2.40
2023-05-23T00:41:52.448Z,2.30
2023-05-23T00:44:21.501Z,3.60
2023-05-23T00:46:53.383Z,2.60
2023-05-23T00:49:21.461Z,2.60
2023-05-23T00:51:50.324Z,2.90
2023-05-23T00:54:19.388Z,2.60
2023-05-23T00:56:48.342Z,2.70
2023-05-23T00:59:16.313Z,2.70
2023-05-23T01:01:46.814Z,2.70
2023-05-23T01:04:17.735Z,3.20
2023-05-23T01:06:47.171Z,2.57
2023-05-23T01:09:15.525Z,2.70
2023-05-23T01:11:44.781Z,3.20
2023-05-23T01:14:13.857Z,2.97
2023-05-23T01:16:48.749Z,2.73
2023-05-23T01:19:30.464Z,3.00
2023-05-23T01:21:58.424Z,2.83
2023-05-23T01:24:37.913Z,2.63
2023-05-23T01:27:11.130Z,3.23
2023-05-23T01:29:43.448Z,2.67
2023-05-23T01:32:12.562Z,2.40
2023-05-23T01:34:41.064Z,3.13
2023-05-23T01:37:09.773Z,2.70
2023-05-23T01:39:37.842Z,2.50
2023-05-23T01:42:06.141Z,2.87
2023-05-23T01:44:34.275Z,3.30
2023-05-23T01:47:03.773Z,3.10
2023-05-23T01:49:31.864Z,2.73
2023-05-23T01:52:00.339Z,2.43
2023-05-23T01:54:29.390Z,2.90
2023-05-23T01:56:57.902Z,2.70
2023-05-23T01:59:25.848Z,2.50
2023-05-23T02:01:54.013Z,3.40
2023-05-23T02:04:23.317Z,2.73
2023-05-23T02:06:51.324Z,3.23
2023-05-23T02:09:19.321Z,2.73
2023-05-23T02:11:47.265Z,3.63
2023-05-23T02:14:15.238Z,3.27
2023-05-23T02:16:43.314Z,3.00
2023-05-23T02:19:11.319Z,2.70
2023-05-23T02:21:40.745Z,3.00
2023-05-23T02:24:08.772Z,3.60
2023-05-23T02:26:37.064Z,3.03
2023-05-23T02:29:05.031Z,3.10
2023-05-23T02:31:33.052Z,3.23
2023-05-23T02:34:01.244Z,3.30
2023-05-23T02:36:29.213Z,3.00
2023-05-23T02:38:58.688Z,3.53
2023-05-23T02:41:27.039Z,3.83
2023-05-23T02:43:54.976Z,3.70
2023-05-23T02:46:23.012Z,2.70
2023-05-23T02:48:51.007Z,4.07
2023-05-23T02:51:19.004Z,3.00
2023-05-23T02:53:46.946Z,2.90
2023-05-23T02:56:16.264Z,3.13
2023-05-23T02:58:44.217Z,3.60
2023-05-23T03:01:12.165Z,3.37
2023-05-23T03:03:41.738Z,2.57
2023-05-23T03:06:14.436Z,3.10
2023-05-23T03:08:43.147Z,3.10
2023-05-23T03:11:11.100Z,3.60
2023-05-23T03:13:40.419Z,3.73
2023-05-23T03:16:08.575Z,3.10
2023-05-23T03:18:36.707Z,2.70
2023-05-23T03:21:04.724Z,2.73
2023-05-23T03:23:32.648Z,3.47
2023-05-23T03:26:00.823Z,3.47
2023-05-23T03:28:28.758Z,3.47
2023-05-23T03:30:58.054Z,3.00
2023-05-23T03:33:26.006Z,3.10
2023-05-23T03:35:53.970Z,3.37
2023-05-23T03:38:21.992Z,3.00
2023-05-23T03:40:49.925Z,2.80
2023-05-23T03:43:17.849Z,3.27
2023-05-23T03:45:45.986Z,3.57
2023-05-23T03:48:16.042Z,3.03
2023-05-23T03:50:44.026Z,2.90
2023-05-23T03:53:12.105Z,3.50
2023-05-23T03:55:40.427Z,4.53
2023-05-23T03:58:08.558Z,3.70
2023-05-23T04:00:36.539Z,3.23
2023-05-23T04:03:04.997Z,4.10
2023-05-23T04:05:34.887Z,2.83
2023-05-23T04:08:02.839Z,4.07
2023-05-23T04:10:30.894Z,5.17
2023-05-23T04:12:58.853Z,8.40
2023-05-23T04:15:28.029Z,5.43
2023-05-23T04:17:59.634Z,9.67
2023-05-23T04:20:27.550Z,5.80
2023-05-23T04:22:56.829Z,6.10
2023-05-23T04:25:24.721Z,9.20
2023-05-23T04:27:52.614Z,6.03
2023-05-23T04:30:20.590Z,5.53
2023-05-23T04:32:48.748Z,7.03
2023-05-23T04:35:16.824Z,5.60
2023-05-23T04:37:45.634Z,4.70
2023-05-23T04:40:16.347Z,5.30
2023-05-23T04:42:44.573Z,7.30
2023-05-23T04:45:12.945Z,7.33
2023-05-23T04:47:42.019Z,5.60
2023-05-23T04:50:10.818Z,5.57
2023-05-23T04:52:38.824Z,5.37
2023-05-23T04:55:08.736Z,5.80
2023-05-23T04:57:38.374Z,6.20
2023-05-23T05:00:15.448Z,6.50
2023-05-23T05:02:44.135Z,5.90
2023-05-23T05:05:12.156Z,5.00
2023-05-23T05:07:40.505Z,5.50
2023-05-23T05:10:09.434Z,4.60
2023-05-23T05:12:38.784Z,4.90
2023-05-23T05:15:07.865Z,4.80
2023-05-23T05:17:37.390Z,4.23
2023-05-23T05:20:08.675Z,4.00
2023-05-23T05:22:36.961Z,4.40
2023-05-23T05:25:07.356Z,4.00
2023-05-23T05:27:35.362Z,4.30
2023-05-23T05:30:06.277Z,4.23
2023-05-23T05:32:34.690Z,4.40
2023-05-23T05:35:03.198Z,4.53
2023-05-23T05:37:31.449Z,5.20
2023-05-23T05:40:06.740Z,4.17
2023-05-23T05:42:34.948Z,4.27
2023-05-23T05:45:04.363Z,3.67
2023-05-23T05:47:32.314Z,4.90
2023-05-23T05:50:00.218Z,3.80
2023-05-23T05:52:31.288Z,4.57
2023-05-23T05:54:59.212Z,3.93
2023-05-23T05:57:27.350Z,4.80
2023-05-23T05:59:55.441Z,4.83
2023-05-23T06:02:24.849Z,4.13
2023-05-23T06:04:52.958Z,4.53
2023-05-23T06:07:20.955Z,4.47
2023-05-23T06:09:49.006Z,3.93
2023-05-23T06:12:16.970Z,4.40
2023-05-23T06:14:44.908Z,5.37
2023-05-23T06:17:15.077Z,5.07
2023-05-23T06:19:45.677Z,3.63
2023-05-23T06:22:13.901Z,4.20
2023-05-23T06:24:41.923Z,4.27
2023-05-23T06:27:09.873Z,4.23
2023-05-23T06:29:37.836Z,3.50
2023-05-23T06:32:06.410Z,4.23
2023-05-23T06:34:34.460Z,3.90
2023-05-23T06:37:03.840Z,4.50
2023-05-23T06:39:31.791Z,3.73
2023-05-23T06:41:59.802Z,3.60
2023-05-23T06:44:27.737Z,3.90
2023-05-23T06:46:57.692Z,3.33
2023-05-23T06:49:25.899Z,4.13
2023-05-23T06:51:54.451Z,3.63
2023-05-23T06:54:23.927Z,3.23
2023-05-23T06:56:51.925Z,3.50
2023-05-23T06:59:20.397Z,4.33
2023-05-23T07:01:48.459Z,4.50
2023-05-23T07:04:17.081Z,3.90
2023-05-23T07:06:45.055Z,3.43
2023-05-23T07:09:13.255Z,3.63
2023-05-23T07:11:42.583Z,3.67
2023-05-23T07:14:10.519Z,3.30
2023-05-23T07:16:38.553Z,3.37
2023-05-23T07:19:06.566Z,3.83
2023-05-23T07:21:34.663Z,3.83
2023-05-23T07:24:02.607Z,3.30
2023-05-23T07:26:30.949Z,3.50
2023-05-23T07:29:00.331Z,3.43
2023-05-23T07:31:28.321Z,3.37
2023-05-23T07:33:56.892Z,3.50
2023-05-23T07:36:25.110Z,3.13
2023-05-23T07:38:53.359Z,3.47
2023-05-23T07:41:22.178Z,3.57
2023-05-23T07:43:50.146Z,2.83
2023-05-23T07:46:19.563Z,3.67
2023-05-23T07:48:47.602Z,3.40
2023-05-23T07:51:15.776Z,3.80
2023-05-23T07:53:43.784Z,3.90
2023-05-23T07:56:11.925Z,3.10
2023-05-23T07:58:39.895Z,3.20
2023-05-23T08:01:08.102Z,3.60
2023-05-23T08:03:37.718Z,3.40
2023-05-23T08:06:07.488Z,3.10
2023-05-23T08:08:36.216Z,3.17
2023-05-23T08:11:04.251Z,3.60
2023-05-23T08:13:32.388Z,3.10
2023-05-23T08:16:00.385Z,3.40
2023-05-23T08:18:28.563Z,3.27
2023-05-23T08:20:57.980Z,3.30
2023-05-23T08:23:26.039Z,3.20
2023-05-23T08:25:56.103Z,2.87
2023-05-23T08:28:24.099Z,2.83
2023-05-23T08:30:52.227Z,2.93
2023-05-23T08:33:20.246Z,2.77
2023-05-23T08:35:48.216Z,2.53
2023-05-23T08:38:18.234Z,2.47
2023-05-23T08:40:47.755Z,3.03
2023-05-23T08:43:16.114Z,2.40
2023-05-23T08:45:44.644Z,2.93
2023-05-23T08:48:13.637Z,3.07
2023-05-23T08:50:42.103Z,2.53
2023-05-23T08:53:12.566Z,2.83
2023-05-23T08:55:42.406Z,3.00
2023-05-23T08:58:10.564Z,2.43
2023-05-23T09:00:38.616Z,2.90
2023-05-23T09:03:06.804Z,3.23
2023-05-23T09:05:34.892Z,3.43
2023-05-23T09:08:03.064Z,2.87
2023-05-23T09:10:30.985Z,2.73
2023-05-23T09:13:00.438Z,2.90
2023-05-23T09:15:29.216Z,2.67
2023-05-23T09:18:01.766Z,2.93
2023-05-23T09:20:29.932Z,2.80
2023-05-23T09:22:57.935Z,2.90
2023-05-23T09:25:25.938Z,2.63
2023-05-23T09:27:54.547Z,3.10
2023-05-23T09:30:23.903Z,2.90
2023-05-23T09:33:05.403Z,2.77
2023-05-23T09:35:34.040Z,2.30
2023-05-23T09:38:02.091Z,3.03
2023-05-23T09:40:33.583Z,2.67
2023-05-23T09:43:03.459Z,2.90
2023-05-23T09:45:32.993Z,3.03
2023-05-23T09:48:01.846Z,2.80
2023-05-23T09:50:33.461Z,2.20
2023-05-23T09:53:01.819Z,2.70
2023-05-23T09:55:30.025Z,2.40
2023-05-23T09:58:04.388Z,2.50
2023-05-23T10:00:34.716Z,3.27
2023-05-23T10:03:12.571Z,3.27
2023-05-23T10:05:43.097Z,2.80
2023-05-23T10:08:13.040Z,3.00
2023-05-23T10:11:18.000Z,3.27
2023-05-23T10:13:46.391Z,2.10
2023-05-23T10:16:17.541Z,3.50
2023-05-23T10:18:46.233Z,3.70
2023-05-23T10:21:15.979Z,2.60
2023-05-23T10:23:44.706Z,3.03
2023-05-23T10:26:12.873Z,2.70
2023-05-23T10:28:41.117Z,3.20
2023-05-23T10:31:09.282Z,3.13
2023-05-23T10:33:56.477Z,3.10
2023-05-23T10:36:27.121Z,2.70
2023-05-23T10:38:59.142Z,3.00
2023-05-23T10:41:30.144Z,2.93
2023-05-23T10:44:02.550Z,3.13
2023-05-23T10:46:51.921Z,3.13
2023-05-23T10:49:21.347Z,3.10
2023-05-23T10:51:51.562Z,2.97
2023-05-23T10:54:19.831Z,3.20
2023-05-23T10:56:47.884Z,3.63
2023-05-23T10:59:22.974Z,3.80
2023-05-23T11:01:52.496Z,3.10
2023-05-23T11:04:28.076Z,3.90
2023-05-23T11:06:56.957Z,3.30
2023-05-23T11:09:25.097Z,3.13
2023-05-23T11:11:53.758Z,3.67
2023-05-23T11:14:21.813Z,2.97
2023-05-23T11:16:50.150Z,4.00
2023-05-23T11:19:28.103Z,2.87
2023-05-23T11:22:00.026Z,3.30
2023-05-23T11:24:49.008Z,3.20
2023-05-23T11:27:16.988Z,2.77
2023-05-23T11:29:44.995Z,3.00
2023-05-23T11:32:17.137Z,2.63
2023-05-23T11:34:45.798Z,3.60
2023-05-23T11:37:15.195Z,3.17
2023-05-23T11:39:43.358Z,3.23
2023-05-23T11:42:11.307Z,3.13
2023-05-23T11:44:39.222Z,2.50
2023-05-23T11:47:08.498Z,3.23
2023-05-23T11:49:38.014Z,2.73
2023-05-23T11:52:06.581Z,3.17
2023-05-23T11:54:35.903Z,2.53
2023-05-23T11:57:04.067Z,3.20
2023-05-23T11:59:32.016Z,2.77
2023-05-23T12:01:59.955Z,3.00
2023-05-23T12:04:28.044Z,3.10
2023-05-23T12:06:56.141Z,3.13
2023-05-23T12:09:24.320Z,2.90
2023-05-23T12:11:53.703Z,2.47
2023-05-23T12:14:21.857Z,2.63
2023-05-23T12:16:50.064Z,3.80
2023-05-23T12:19:18.230Z,3.17
2023-05-23T12:21:47.143Z,2.80
2023-05-23T12:24:17.254Z,3.07
2023-05-23T12:26:51.563Z,2.83
2023-05-23T12:29:30.670Z,2.90
2023-05-23T12:31:59.777Z,3.20
2023-05-23T12:34:28.892Z,2.90
2023-05-23T12:37:10.476Z,2.93
2023-05-23T12:39:45.471Z,2.80
2023-05-23T12:42:13.575Z,3.20
2023-05-23T12:44:43.783Z,3.07
2023-05-23T12:47:11.936Z,3.00
2023-05-23T12:49:40.161Z,3.57
2023-05-23T12:52:08.430Z,3.23
2023-05-23T12:54:36.928Z,2.83
2023-05-23T12:57:05.023Z,3.03
2023-05-23T12:59:33.100Z,3.47
2023-05-23T13:02:02.784Z,2.80
2023-05-23T13:04:32.450Z,4.23
2023-05-23T13:07:00.767Z,3.87
2023-05-23T13:09:28.796Z,4.37
2023-05-23T13:11:56.879Z,4.10
2023-05-23T13:14:24.920Z,3.60
2023-05-23T13:16:53.414Z,3.43
2023-05-23T13:19:22.891Z,3.00
2023-05-23T13:21:50.890Z,3.67
2023-05-23T13:24:18.990Z,2.50
2023-05-23T13:26:46.989Z,3.33
2023-05-23T13:29:15.185Z,3.50
2023-05-23T13:31:43.336Z,2.70
2023-05-23T13:34:11.325Z,3.23
2023-05-23T13:36:40.805Z,2.80
2023-05-23T13:39:08.801Z,3.10
2023-05-23T13:41:36.809Z,2.40
2023-05-23T13:44:04.836Z,3.30
2023-05-23T13:46:32.865Z,2.90
2023-05-23T13:49:01.387Z,2.80
2023-05-23T13:51:29.400Z,3.20
2023-05-23T13:53:58.756Z,3.37
2023-05-23T13:56:26.785Z,3.30
2023-05-23T13:58:54.814Z,3.93
2023-05-23T14:01:22.805Z,2.70
2023-05-23T14:03:50.908Z,3.10
2023-05-23T14:06:19.171Z,2.80
2023-05-23T14:08:47.442Z,3.40
2023-05-23T14:11:16.848Z,3.40
2023-05-23T14:13:44.860Z,3.27
2023-05-23T14:16:12.854Z,3.53
2023-05-23T14:18:40.894Z,3.00
2023-05-23T14:21:08.881Z,3.47
2023-05-23T14:23:36.890Z,2.83
2023-05-23T14:26:05.294Z,4.03
2023-05-23T14:28:34.739Z,2.90
2023-05-23T14:31:02.786Z,2.63
2023-05-23T14:33:30.769Z,3.23
2023-05-23T14:35:58.775Z,3.20
2023-05-23T14:38:27.215Z,3.10
2023-05-23T14:40:55.254Z,4.20
2023-05-23T14:43:23.248Z,3.07
2023-05-23T14:45:52.883Z,3.43
2023-05-23T14:48:21.371Z,2.67
2023-05-23T14:50:49.443Z,3.43
2023-05-23T14:53:17.602Z,2.87
2023-05-23T14:55:45.681Z,3.13
2023-05-23T14:58:13.655Z,2.93
2023-05-23T15:00:42.676Z,3.10
2023-05-23T15:03:12.266Z,3.33
2023-05-23T15:05:40.697Z,3.47
2023-05-23T15:08:08.842Z,2.67
2023-05-23T15:10:37.505Z,2.90
2023-05-23T15:13:05.619Z,4.53
2023-05-23T15:15:37.565Z,2.60
2023-05-23T15:18:08.177Z,3.17
2023-05-23T15:20:37.829Z,3.90
2023-05-23T15:23:06.071Z,3.03
2023-05-23T15:25:46.409Z,3.60
2023-05-23T15:28:17.161Z,2.77
2023-05-23T15:30:45.273Z,3.30
2023-05-23T15:33:13.365Z,2.80
2023-05-23T15:35:43.035Z,3.20
2023-05-23T15:38:13.467Z,3.67
2023-05-23T15:40:42.735Z,3.00
2023-05-23T15:43:10.941Z,3.23
2023-05-23T15:45:38.993Z,3.67
2023-05-23T15:48:09.908Z,3.50
2023-05-23T15:50:37.935Z,3.40
2023-05-23T15:53:07.349Z,3.07
2023-05-23T15:55:36.469Z,3.20
2023-05-23T15:58:04.662Z,4.33
2023-05-23T16:00:32.667Z,3.60
2023-05-23T16:03:00.896Z,3.90
2023-05-23T16:05:32.037Z,4.70
2023-05-23T16:08:00.067Z,3.20
2023-05-23T16:10:29.419Z,2.90
2023-05-23T16:12:57.607Z,3.00
2023-05-23T16:15:25.645Z,3.40
2023-05-23T16:17:54.489Z,3.23
2023-05-23T16:20:22.596Z,4.23
2023-05-23T16:22:50.720Z,4.00
2023-05-23T16:25:19.014Z,3.00
2023-05-23T16:27:48.396Z,3.50
2023-05-23T16:30:16.788Z,4.10
2023-05-23T16:32:44.927Z,3.80
2023-05-23T16:35:12.944Z,3.77
2023-05-23T16:37:41.144Z,3.00
2023-05-23T16:40:10.235Z,3.50
2023-05-23T16:42:38.720Z,2.73
2023-05-23T16:45:09.353Z,3.50
2023-05-23T16:47:37.502Z,3.37
2023-05-23T16:50:06.033Z,3.40
2023-05-23T16:52:34.085Z,3.00
2023-05-23T16:55:02.039Z,3.43
2023-05-23T16:57:30.123Z,4.13
2023-05-23T16:59:58.236Z,3.20
2023-05-23T17:02:27.696Z,3.20
2023-05-23T17:04:56.038Z,3.50
2023-05-23T17:07:24.092Z,3.43
2023-05-23T17:09:52.067Z,4.03
2023-05-23T17:12:20.171Z,3.40
2023-05-23T17:14:49.085Z,4.00
2023-05-23T17:17:17.190Z,3.80
2023-05-23T17:19:47.625Z,3.17
2023-05-23T17:22:15.694Z,3.93
2023-05-23T17:24:43.694Z,3.10
2023-05-23T17:27:11.678Z,3.40
2023-05-23T17:29:39.658Z,3.10
2023-05-23T17:32:08.788Z,2.60
2023-05-23T17:34:36.868Z,3.30
2023-05-23T17:37:06.557Z,3.50
2023-05-23T17:39:34.576Z,3.13
2023-05-23T17:42:02.561Z,2.07
2023-05-23T17:44:30.633Z,3.37
2023-05-23T17:46:58.744Z,3.30
2023-05-23T17:49:27.104Z,3.67
2023-05-23T17:51:55.113Z,3.13
2023-05-23T17:54:24.468Z,2.90
2023-05-23T17:56:52.769Z,3.27
2023-05-23T17:59:20.765Z,3.67
2023-05-23T18:01:48.713Z,2.80
2023-05-23T18:04:16.727Z,3.30
2023-05-23T18:06:44.860Z,2.83
2023-05-23T18:09:12.840Z,2.67
2023-05-23T18:11:42.864Z,2.83
2023-05-23T18:14:11.068Z,2.97
2023-05-23T18:16:39.166Z,3.07
2023-05-23T18:19:07.320Z,3.13
2023-05-23T18:21:35.563Z,2.40
2023-05-23T18:24:04.064Z,3.30
2023-05-23T18:26:32.146Z,2.60
2023-05-23T18:29:02.855Z,3.00
2023-05-23T18:31:32.728Z,2.73
2023-05-23T18:34:00.918Z,3.00
2023-05-23T18:36:29.040Z,3.63
2023-05-23T18:38:57.083Z,3.07
2023-05-23T18:41:27.742Z,3.80
2023-05-23T18:43:55.823Z,4.30
2023-05-23T18:46:25.740Z,3.10
2023-05-23T18:48:54.107Z,3.30
2023-05-23T18:51:22.214Z,3.50
2023-05-23T18:53:50.270Z,3.73
2023-05-23T18:56:18.367Z,4.37
2023-05-23T18:58:47.274Z,3.23
2023-05-23T19:01:15.396Z,3.23
2023-05-23T19:03:45.939Z,5.17
2023-05-23T19:06:14.130Z,3.50
2023-05-23T19:08:42.750Z,3.23
2023-05-23T19:11:10.987Z,2.80
2023-05-23T19:13:39.166Z,2.90
2023-05-23T19:16:07.406Z,3.30
2023-05-23T19:18:38.732Z,3.10
2023-05-23T19:21:08.098Z,4.57
2023-05-23T19:23:38.919Z,3.70
2023-05-23T19:26:06.941Z,3.03
2023-05-23T19:28:36.649Z,3.47
2023-05-23T19:31:04.615Z,4.43
2023-05-23T19:33:32.619Z,3.53
2023-05-23T19:36:00.962Z,3.80
2023-05-23T19:38:30.334Z,3.73
2023-05-23T19:40:58.310Z,3.87
2023-05-23T19:43:26.809Z,3.80
2023-05-23T19:45:55.021Z,3.27
2023-05-23T19:48:23.067Z,3.50
2023-05-23T19:50:51.138Z,3.30
2023-05-23T19:53:20.705Z,4.40
2023-05-23T19:55:50.234Z,3.07
2023-05-23T19:58:21.096Z,4.20
2023-05-23T20:00:49.188Z,3.40
2023-05-23T20:03:17.443Z,3.63
2023-05-23T20:05:45.915Z,3.40
2023-05-23T20:08:14.016Z,4.00
2023-05-23T20:10:43.284Z,3.93
2023-05-23T20:13:12.907Z,3.10
2023-05-23T20:15:40.952Z,3.87
2023-05-23T20:18:09.074Z,3.10
2023-05-23T20:20:37.193Z,3.93
2023-05-23T20:23:05.727Z,3.87
2023-05-23T20:25:33.903Z,3.47
2023-05-23T20:28:01.979Z,3.17
2023-05-23T20:30:32.199Z,3.17
2023-05-23T20:33:00.321Z,3.70
2023-05-23T20:35:28.273Z,3.83
2023-05-23T20:37:56.250Z,3.47
2023-05-23T20:40:25.672Z,3.80
2023-05-23T20:42:53.773Z,3.63
2023-05-23T20:45:21.807Z,3.80
2023-05-23T20:47:53.692Z,3.80
2023-05-23T20:50:22.096Z,3.87
2023-05-23T20:52:50.066Z,3.20
2023-05-23T20:55:18.100Z,4.00
2023-05-23T20:57:46.422Z,3.90
2023-05-23T21:00:15.668Z,4.33
2023-05-23T21:02:43.961Z,4.10
2023-05-23T21:05:13.837Z,4.57
2023-05-23T21:07:41.846Z,3.87
2023-05-23T21:10:10.318Z,3.80
2023-05-23T21:12:38.313Z,3.30
2023-05-23T21:15:07.508Z,3.60
2023-05-23T21:17:35.718Z,3.37
2023-05-23T21:20:03.774Z,3.63
2023-05-23T21:22:33.201Z,3.70
2023-05-23T21:25:01.264Z,4.70
2023-05-23T21:27:29.398Z,2.97
2023-05-23T21:29:57.391Z,3.53
2023-05-23T21:32:29.173Z,3.63
2023-05-23T21:34:57.298Z,3.60
2023-05-23T21:37:25.306Z,3.50
2023-05-23T21:39:54.699Z,2.77
2023-05-23T21:42:24.701Z,4.00
2023-05-23T21:44:52.640Z,3.40
2023-05-23T21:47:21.520Z,3.70
2023-05-23T21:49:49.503Z,4.23
2023-05-23T21:52:17.513Z,3.60
2023-05-23T21:54:46.959Z,3.90
2023-05-23T21:57:16.427Z,4.20
2023-05-23T21:59:44.478Z,5.03
2023-05-23T22:02:12.456Z,3.60
2023-05-23T22:04:40.346Z,4.63
2023-05-23T22:07:08.305Z,4.30
2023-05-23T22:09:36.556Z,4.80
2023-05-23T22:12:04.861Z,4.17
2023-05-23T22:14:34.628Z,3.63
2023-05-23T22:17:04.322Z,3.60
2023-05-23T22:19:32.428Z,3.93
2023-05-23T22:22:00.445Z,3.70
2023-05-23T22:24:29.267Z,3.70
2023-05-23T22:27:00.814Z,3.60
2023-05-23T22:29:28.778Z,4.20
2023-05-23T22:31:58.235Z,3.70
2023-05-23T22:34:26.271Z,3.57
2023-05-23T22:36:54.311Z,3.37
2023-05-23T22:39:22.245Z,3.30
2023-05-23T22:41:50.224Z,3.97
2023-05-23T22:44:18.165Z,4.63
2023-05-23T22:46:46.199Z,4.17
2023-05-23T22:49:16.329Z,4.90
2023-05-23T22:51:44.736Z,5.00
2023-05-23T22:54:12.714Z,3.17
2023-05-23T22:56:40.687Z,4.03
2023-05-23T22:59:08.804Z,4.03
2023-05-23T23:01:36.943Z,3.90
2023-05-23T23:04:05.429Z,4.67
2023-05-23T23:06:35.679Z,4.03
2023-05-23T23:09:05.067Z,4.23
2023-05-23T23:11:33.030Z,4.20
2023-05-23T23:14:01.022Z,3.00
2023-05-23T23:16:30.620Z,3.40
2023-05-23T23:18:58.854Z,4.00
2023-05-23T23:21:26.861Z,4.53
2023-05-23T23:23:56.738Z,3.90
2023-05-23T23:26:24.693Z,4.07
2023-05-23T23:28:52.932Z,3.63
2023-05-23T23:31:20.926Z,3.73
2023-05-23T23:33:48.996Z,3.90
2023-05-23T23:36:16.937Z,3.60
2023-05-23T23:38:44.899Z,3.80
2023-05-23T23:41:14.697Z,3.33
2023-05-23T23:43:42.686Z,3.73
2023-05-23T23:46:11.277Z,4.83
2023-05-23T23:48:39.365Z,3.80
2023-05-23T23:51:07.710Z,3.73
2023-05-23T23:53:35.857Z,3.03
2023-05-23T23:56:03.835Z,2.93
2023-05-23T23:58:33.173Z,4.20
